High Point, NC

9:01 AM EDT on July 27, 2016 (GMT -0400)
Oak Hollow Marina | | Change Station
Active Advisory: Heat Advisory Active Notice: Record Report, Public Information Statement

Elev 850 ft 36.01 °N, 80.00 °W | Updated 12 minutes ago

Mostly Cloudy
Mostly Cloudy
82.6 °F
Feels Like 91 °F
N
0.0
Wind Variable Wind from East
Gusts 1.0 mph

Today
High -- | Low -- °F
--% Chance of Precip.
Yesterday
High -- | Low -- °F
Precip. -- in
Pressure 29.98 in
Visibility 9.0 miles
Clouds Mostly Cloudy 12000 ft
Heat Index 91 °F
Dew Point 77 °F
Humidity 83%
Rainfall 0.00 in
Snow Depth Not available.
6:23 AM 8:28 PM
Last Quarter, 43% visible
METAR KGSO 271254Z 00000KT 9SM BKN120 28/24 A3002 RMK AO2 SLP152 T02780244
Pressure 29.98 in
Visibility 9.0 miles
Clouds Mostly Cloudy 12000 ft
Heat Index 91 °F
Dew Point 77 °F
Humidity 83%
Rainfall 0.00 in
Snow Depth Not available.
6:23 AM 8:28 PM
Last Quarter, 43% visible
METAR KGSO 271254Z 00000KT 9SM BKN120 28/24 A3002 RMK AO2 SLP152 T02780244

10-Day Weather Forecast

Almanac

Astronomy

Jul. 27, 2016 Rise Set
Actual Time
Civil Twilight
Nautical Twilight
Astronomical Twilight
Moon
Length of Visible Light
Length of Day
Tomorrow will be .
, % of the Moon is Illuminated

Today's Extremes

State Highs State Lows

Community

WunderPhotos

Upload Photos

1,927,842 photos uploaded!

WunderBlog® & News

Nearby

Air Quality

  Air Quality AQ Index Pollutant
Not available.

Snow Depth

Station Depth Elevation

Earthquake Activity

City Distance Mag. Time & Date
Minimum magnitude displayed is 2.5.

Coastal Water Temperatures

Place Temperature

Stations

Nearby Weather Stations

Station Location Temp. Windchill Dew Point Humidity Wind Precip. Elev Updated Type
                   

Watches & Warnings

Heat Advisory
Issued: 3:44 AM EDT Jul. 27, 2016 – National Weather Service

... Heat advisory in effect from noon today to 8 PM EDT this
evening...

The National Weather Service in Raleigh has issued a heat
advisory... which is in effect from noon today to 8 PM EDT this
evening.

* Temperatures... highs will be in the mid to upper 90s.

* Heat indices... 102 to 106 degrees.

* Impacts... the accumulative effects of the heat and humidity
will lead to an increased risk of heat related illnesses...
especially among vulnerable individuals such as the sick... the
elderly... those exerting themselves outdoors... and those
without air conditioning.

Precautionary/preparedness actions...

A heat advisory means that hot temperatures and high humidity
will create a situation in which heat illnesses are possible.
Drink plenty of fluids... stay in an air-conditioned room... stay
out of the sun... and check up on relatives and neighbors.